Julián Romano

Olheiro-Chefe - All Boys
4 Dez 2028
Segunda-feira
Processo

Personalidade

Adaptabilidade (2) Ambição (6) Controvérsia (9) Lealdade (4) Pressão (18) Profissionalismo (15) Espírito Esportivo (8) Temperamento (19)

Perfil

Estilo de Treinamento Democrático
Licença Nacional B
Determinação 4
Gestão de Pessoas 5
Motivação 3
Disciplina 6
Satisfação no Trabalho
100%
Fadiga
0%
Função Olheiro-Chefe
Salário 6.2K p/s
Contrato 14.03.2029

Desempenho

Comportamento Bom
Eficácia do Treinamento
14%
Desenvolvimento do Jogador
35%
Prevenção de Lesões
35%
Implementação Tática
10%

Eventos Recentes

Avaliou um jogador 7d atrás
Avaliou um jogador 7d atrás
Avaliou um jogador 7d atrás
Avaliou um jogador 14d atrás
Avaliou um jogador 14d atrás
Avaliou um jogador 14d atrás
Avaliou um jogador 14d atrás
Avaliou um jogador 14d atrás

Monitorando agora

243
Jogador Clube Status Habilidade Confiança Observado Última observação Último voto
Diego Gaitán Maipú Ativo 124 / 125 40% 6 29.11.2028 -
Marcos Enrique Tristán Suárez Ativo 115 / 126 40% 2 29.11.2028 -
Abel Bustos Racing Ativo 122 / 129 40% 2 26.11.2028 -
Tobías Leiva Estudiantes Ativo 111 / 116 40% 3 25.11.2028 -
Franco Vedoya Central Norte Ativo 112 / 128 40% 5 25.11.2028 -
Facundo Taborda Racing Ativo 104 / 105 40% 4 21.11.2028 -
Franco Bustamante Almagro Ativo 96 / 90 40% 2 21.11.2028 -
Erik de los Santos Racing Ativo 122 / 115 40% 3 20.11.2028 -
Matías Sosa Arsenal Ativo 107 / 107 40% 2 20.11.2028 -
Enzo González Defensores Ativo 112 / 115 40% 4 18.11.2028 -
Tomás Ferreyra Defensores Unidos Ativo 120 / 113 40% 3 18.11.2028 -
José Barreto Quilmes Ativo 120 / 124 40% 3 16.11.2028 -
Matías Bergara Nueva Chicago Ativo 115 / 106 40% 3 16.11.2028 -
Rodrigo Ramírez Nueva Chicago Ativo 114 / 123 40% 2 15.11.2028 -
Agustín Pereira Albion Ativo 120 / 120 40% 3 15.11.2028 -
Gerónimo Tomasetti Temperley Ativo 117 / 118 40% 4 14.11.2028 -
Santiago Sala Güemes Ativo 120 / 119 40% 8 14.11.2028 -
Enderson Torrealba Estudiantes de Caracas Ativo 99 / 83 40% 3 13.11.2028 -
Valentín Amoroso Plaza Colonia Ativo 112 / 95 40% 1 13.11.2028 -
Gonzalo Flores Almirante Brown Ativo 111 / 116 40% 2 08.11.2028 -
Nicolás Mosca Atlanta Ativo 111 / 110 40% 2 08.11.2028 -
Camilo Machado Madryn Ativo 113 / 101 40% 7 07.11.2028 -
Carlos Cantillo Jaguares Ativo 121 / 124 40% 1 07.11.2028 -
Brandon Mejía Fortaleza CEIF Ativo 100 / 100 40% 3 03.11.2028 -
Tomás Castro Ponce Atlanta Ativo 113 / 111 40% 1 02.11.2028 -
Dylan Cabral Arsenal Ativo 105 / 96 40% 1 02.11.2028 -
Sneider Navarro Metropolitanos Ativo 102 / 101 40% 5 31.10.2028 -
Federico Versaci Talleres Ativo 126 / 117 40% 6 30.10.2028 -
Gonzalo Trindade Nueva Chicago Ativo 111 / 104 40% 1 30.10.2028 -
Francisco Ginella Albion Ativo 105 / 118 40% 3 29.10.2028 -
Alejo Dramisino Atlanta Ativo 112 / 114 40% 4 28.10.2028 -
Tiago Taobas Central Norte Ativo 102 / 92 40% 1 27.10.2028 -
Enzo Silcan Almagro Ativo 118 / 108 40% 4 25.10.2028 -
Kevin Colli Tristán Suárez Ativo 109 / 105 40% 1 25.10.2028 -
Julián Brea Cobresal Ativo 106 / 110 40% 2 24.10.2028 -
Renzo Reynaga Patronato Ativo 117 / 106 40% 3 22.10.2028 -
Juan Camilo Quiñonez Llaneros Ativo 103 / 90 40% 2 21.10.2028 -
Ramiro Makarte Alvarado Ativo 103 / 113 40% 1 21.10.2028 -
Eyder Restrepo Llaneros Ativo 109 / 96 40% 3 18.10.2028 -
Marco Miori Alvarado Ativo 120 / 99 40% 5 18.10.2028 -
Martín Campos Ferro Carril Oeste Ativo 131 / 119 40% 4 17.10.2028 -
Jhon Solís Fortaleza CEIF Ativo 107 / 114 40% 2 17.10.2028 -
Marcelo Eggel Maipú Ativo 103 / 117 40% 1 15.10.2028 -
Antonio Napolitano Agropecuario Argentino Ativo 126 / 120 40% 2 14.10.2028 -
Pedro Sanz Central Norte Ativo 115 / 107 40% 2 14.10.2028 -
Augusto Berrondo Tristán Suárez Ativo 120 / 121 40% 5 13.10.2028 -
Thiago Lauro Morón Ativo 115 / 130 40% 3 13.10.2028 -
Nicolás Retamar Ferro Carril Oeste Ativo 119 / 122 40% 4 09.10.2028 -
Miguel Ceccotti Güemes Ativo 105 / 115 40% 2 09.10.2028 -
Luis Olivera Defensores Unidos Ativo 108 / 121 40% 2 08.10.2028 -
Simón Contreras Iquique Ativo 108 / 94 40% 2 07.10.2028 -
David Veliz Güemes Ativo 120 / 122 40% 3 06.10.2028 -
Román Gamarra San Telmo Ativo 109 / 111 40% 2 02.10.2028 -
José Cadenas Zulia Ativo 88 / 105 40% 1 02.10.2028 -
Franco Díaz Temperley Ativo 133 / 135 40% 2 01.10.2028 -
Nicolás Medina Atlanta Ativo 121 / 99 40% 1 30.09.2028 -
Nahuel Albano La Luz Ativo 97 / 93 40% 2 29.09.2028 -
Bruno Pérez Madryn Ativo 113 / 106 40% 2 23.09.2028 -
Agustín Dávila Cerro Largo Ativo 90 / 97 40% 3 18.09.2028 -
Mauro Peinipil Colón Ativo 114 / 126 40% 1 18.09.2028 -
Kevin Díaz Trujillanos Ativo 94 / 84 40% 2 16.09.2028 -
Agustín Benítez Defensores Ativo 125 / 106 40% 1 16.09.2028 -
Jerónimo Porto Lapegüe San Telmo Ativo 119 / 114 40% 2 14.09.2028 -
Franco Ayunta Temperley Ativo 117 / 98 40% 2 09.09.2028 -
Rodrigo Mosqueda River Plate Ativo 105 / 109 40% 2 08.09.2028 -
Enzo Hoyos Ferro Carril Oeste Ativo 110 / 115 40% 2 07.09.2028 -
Braian Aranda Agropecuario Argentino Ativo 105 / 112 40% 1 03.09.2028 -
Álex Perdomo Defensor Sporting Ativo 97 / 108 40% 3 30.08.2028 -
Nahuel Gómez Oriental Ativo 94 / 86 40% 3 25.08.2028 -
Lucas Arzamendia Atenas Ativo 98 / 94 40% 2 25.08.2028 -
Lautaro Gandulfo Central Espanol Ativo 95 / 103 40% 2 23.08.2028 -
Juan Sebastián Herrera Deportivo La Guaira Ativo 112 / 109 40% 1 20.08.2028 -
Gastón Moreyra Almirante Brown Ativo 110 / 118 40% 4 18.08.2028 -
Juan Yangali San Telmo Ativo 122 / 113 40% 1 13.08.2028 -
Tobías Salas Real Cartagena Ativo 98 / 95 40% 1 13.08.2028 -
Facundo Villarreal Los Andes Ativo 115 / 91 40% 2 11.08.2028 -
Samuel Bello Patriotas Ativo 95 / 93 40% 1 09.08.2028 -
Carlos Airala Albion Ativo 112 / 103 40% 4 06.08.2028 -
Owen Falconis Cerrito Ativo 105 / 93 40% 5 05.08.2028 -
Julián Vera Maipú Ativo 109 / 123 40% 3 05.08.2028 -
Gustavo Viera Cerro Largo Ativo 102 / 103 40% 1 04.08.2028 -
Leison Cuero Colon Ativo 87 / 86 40% 1 31.07.2028 -
Nazareno Petrecca Nueva Chicago Ativo 101 / 93 40% 1 28.07.2028 -
Hervin Goyes Deportivo Pasto Ativo 108 / 118 40% 1 27.07.2028 -
Jonathan Baeza La Luz Ativo 106 / 91 40% 1 25.07.2028 -
Facundo Barreto Cerrito Ativo 93 / 104 40% 1 13.07.2028 -
Siro Rosané Estudiantes Ativo 121 / 122 40% 1 10.07.2028 -
Martín García Atlanta Ativo 115 / 124 40% 1 10.07.2028 -
Ramón González Almirante Brown Ativo 106 / 116 40% 1 09.07.2028 -
Pedro Souto Temperley Ativo 109 / 130 40% 1 07.07.2028 -
Alan Olinick Racing Ativo 124 / 111 40% 1 03.07.2028 -
Richard Castillo Valledupar Ativo 73 / 81 40% 2 02.07.2028 -
Levit Béjar Universidad de Concepcion Ativo 98 / 90 40% 1 30.06.2028 -
Brayan Castro Bogota Ativo 104 / 84 40% 1 29.06.2028 -
Esteban de Lima Tacuarembo Ativo 86 / 91 40% 1 27.06.2028 -
Johan Martínez Leones Ativo 88 / 97 40% 1 26.06.2028 -
Sebastián Díaz Bogota Ativo 102 / 93 40% 1 24.06.2028 -
Lucas Chiozza Alvarado Ativo 116 / 114 40% 1 22.06.2028 -
Román Gutiérrez Albion Ativo 93 / 91 40% 1 21.06.2028 -
Andrés Dieppa Bogota Ativo 90 / 90 40% 2 13.06.2028 -
Franco Bigo 12 de Octubre Ativo 95 / 85 40% 1 12.06.2028 -
Lucas López Iglesias 12 de Octubre Ativo 87 / 102 40% 1 12.06.2028 -
Tobías Correa Uruguay Montevideo Ativo 108 / 97 40% 2 07.06.2028 -
Iván Balanta Barranquilla Ativo 87 / 93 40% 1 07.06.2028 -
Federico Bisanz Atlanta Ativo 111 / 121 40% 1 28.12.2027 -
Christian Bravo Huachipato Ativo 84 / 88 40% 2 14.12.2027 -
Oscar García Leon Ativo 90 / 90 40% 2 12.12.2027 -
Mauro Rodas Sportivo Trinidense Ativo 96 / 94 40% 2 10.12.2027 -
Lusiel Gómez La Luz Ativo 91 / 100 40% 1 10.12.2027 -
Michael Barragán Union Magdalena Ativo 105 / 90 40% 3 07.12.2027 -
Joaquín Bigo Tristán Suárez Ativo 110 / 110 40% 1 07.12.2027 -
Cristian Santander Barranquilla Ativo 117 / 116 40% 4 06.12.2027 -
Lautaro Herrera Estudiantes Ativo 109 / 101 40% 3 06.12.2027 -
Diego Carreño O'Higgins Ativo 106 / 88 40% 6 05.12.2027 -
Elías Villar Nacional Ativo 86 / 101 40% 3 03.12.2027 -
Santiago Direnna Miramar Misiones Ativo 81 / 71 40% 5 03.12.2027 -
Íker Blanco Deportivo Cali Ativo 98 / 109 40% 1 01.12.2027 -
Sebastián Alzate Once Caldas Ativo 98 / 86 40% 1 01.12.2027 -
Yeifer Herrera Leones Ativo 90 / 104 40% 3 28.11.2027 -
Juan Esteban Gómez Atletico Nacional Ativo 85 / 85 40% 1 28.11.2027 -
Mathías Bordón Sol de America Ativo 79 / 85 40% 3 27.11.2027 -
Francisco Salerno Defensores Unidos Ativo 120 / 120 40% 6 26.11.2027 -
Gali Balanta Deportes Tolima Ativo 95 / 107 40% 3 25.11.2027 -
Facundo Machado Racing Ativo 102 / 99 40% 1 25.11.2027 -
Brian Mancini Rampla Juniors Ativo 94 / 92 40% 4 24.11.2027 -
Iván Chaves Patronato Ativo 110 / 120 40% 3 24.11.2027 Observar
Antonio Martínez Cerro Porteno Ativo 82 / 99 40% 2 23.11.2027 -
Jaime Acosta Barranquilla Ativo 107 / 102 40% 2 21.11.2027 -
Sebastián Giraldo Depor Ativo 94 / 87 40% 2 20.11.2027 -
Kevin Morgan Plaza Colonia Ativo 97 / 119 40% 4 19.11.2027 -
Agustín Mieres Atlanta Ativo 96 / 96 40% 2 16.11.2027 -
Lautaro Petruchi Gimnasia y Esgrima Ativo 104 / 120 40% 2 15.11.2027 -
Facundo Vila Estudiantes Ativo 98 / 116 40% 6 14.11.2027 -
Ramiro Véliz Artigas Ativo 95 / 84 40% 1 14.11.2027 -
Adrián Acosta Portuguesa Ativo 82 / 89 40% 2 12.11.2027 -
Santiago Scian Nautico Ativo 78 / 83 40% 1 04.11.2027 -
Leo Ocampo Los Angeles Football Club Ativo 83 / 85 40% 1 02.11.2027 -
Jesús Mejía Real Santander Ativo 94 / 101 40% 1 30.10.2027 -
Santiago Videla Iquique Ativo 90 / 103 40% 1 14.10.2027 -
Marco Espíndola Real Cartagena Ativo 97 / 108 40% 1 11.10.2027 -
José Luis Torres Boston River Ativo 79 / 82 40% 3 10.10.2027 -
Juan Ignacio Blanco Defensor Sporting Ativo 82 / 83 40% 2 08.10.2027 -
Federico Bonilla River Plate Ativo 98 / 91 40% 3 04.10.2027 -
Esteban Glellel Quilmes Ativo 124 / 104 40% 3 29.09.2027 -
Alejandro Amaya Union Magdalena Ativo 105 / 93 40% 1 28.09.2027 -
Jesús Peralta Olimpia Ativo 90 / 85 40% 1 22.09.2027 -
Santiago Godoy 12 de Octubre Ativo 86 / 87 40% 2 21.09.2027 -
Anthony Vilche Colon Ativo 78 / 97 40% 2 17.09.2027 -
Joel Abraham Boston River Ativo 84 / 103 40% 2 15.09.2027 -
Alex Mosquera Barranquilla Ativo 89 / 96 40% 1 15.09.2027 -
Luis Mateus Atletico Bucaramanga Ativo 79 / 104 40% 2 12.09.2027 -
Jonathan González River Plate Ativo 99 / 89 40% 1 12.09.2027 -
Edison Gutiérrez Universitario Ativo 71 / 89 40% 1 06.09.2027 -
César González Queretaro Ativo 84 / 105 40% 2 05.09.2027 -
Mateo Stefan Cerro Largo Ativo 76 / 79 40% 3 04.09.2027 -
Lucas Toffoletti Cienciano Ativo 86 / 88 40% 2 26.08.2027 -
Felipe Bianchi Nacional Ativo 74 / 82 40% 1 26.08.2027 -
Juan Miguel Betancourth Deportivo Pereira Ativo 81 / 83 40% 2 25.08.2027 -
Yael Delgado Queretaro Ativo 71 / 76 40% 1 20.08.2027 -
Roberto Moreno Cruz Azul Ativo 73 / 78 40% 2 13.08.2027 -
Miguel Silva Carabobo Ativo 113 / 121 40% 2 11.08.2027 -
Ezequiel Navarro Montoya Atlanta United FC Ativo 100 / 78 40% 1 08.08.2027 -
Cristian Quiñónes General Caballero Ativo 81 / 95 40% 2 04.08.2027 -
Fabián Palomino Ayacucho Ativo 84 / 95 40% 1 03.08.2027 -
Ítalo Sulbarán Mineros de Guayana Ativo 81 / 80 40% 1 02.08.2027 -
Antonio González Estudiantes de Caracas Ativo 90 / 84 40% 1 02.08.2027 -
Omar Robles Real Cartagena Ativo 81 / 88 40% 2 30.07.2027 -
Adrián Csenterics Deportivo Tachira Ativo 90 / 92 40% 3 26.07.2027 -
Lautaro Bursich Talleres Ativo 95 / 116 40% 1 23.07.2027 -
Moisés Gallo Aragua Ativo 106 / 112 40% 4 20.07.2027 -
Gaizka Gómez Wanderers Ativo 79 / 75 40% 2 19.07.2027 -
Tomás Barbero Defensores Unidos Ativo 97 / 94 40% 1 15.07.2027 -
Oscar Meza Portuguesa Ativo 94 / 90 40% 1 13.07.2027 -
Javier Bravo Mineros de Guayana Ativo 81 / 92 40% 1 13.07.2027 -
Alex Payares Barranquilla Ativo 93 / 95 40% 1 29.06.2027 -
Yeferson Cordova Llaneros Ativo 102 / 104 40% 4 27.06.2027 -
Gastón Vega Artigas Ativo 72 / 93 40% 1 22.06.2027 -
Luis Quintero Deportivo La Guaira Ativo 98 / 104 40% 1 18.06.2027 -
Ángel Romero Guadalajara Ativo 95 / 93 40% 1 14.06.2027 -
Tomás Palleres Güemes Ativo 99 / 106 40% 2 30.05.2027 Mais informações
César Carrizo Mineros de Guayana Ativo 104 / 81 40% 2 29.05.2027 -
Jorge Martínez Deportivo Pereira Ativo 76 / 97 40% 1 25.05.2027 -
Marlon Flórez Estudiantes de Caracas Ativo 87 / 72 40% 1 20.05.2027 -
Rafael Sánchez Estudiantes de Caracas Ativo 98 / 98 40% 3 19.05.2027 -
Francisco Mongelos Sportivo Luqueno Ativo 100 / 90 40% 1 14.05.2027 Mais informações
Nahuel Manganelli San Martín Ativo 120 / 102 40% 1 11.05.2027 Mais informações
Andrés Macea Deportivo Pereira Ativo 90 / 100 40% 1 22.04.2027 -
Alberto Martínez River Plate Ativo 86 / 90 40% 1 17.04.2027 -
Nahuel Acosta Progreso Ativo 101 / 112 40% 2 30.11.2026 -
Santiago Ramírez Deportivo Maldonado Ativo 96 / 104 40% 3 29.11.2026 -
Ezequiel Almirón Estudiantes Ativo 123 / 119 40% 1 27.11.2026 -
Franco Suárez Racing Ativo 100 / 97 40% 1 26.11.2026 -
Nicolás Leites Artigas Ativo 81 / 84 40% 3 24.11.2026 -
Gerónimo Blanco River Plate Ativo 74 / 85 40% 1 22.11.2026 -
Juan Mendoza Güemes Ativo 112 / 105 40% 1 22.11.2026 -
Nicolás Heiz Maipú Ativo 120 / 113 40% 2 20.11.2026 -
Blas Armoa Gimnasia y Esgrima Ativo 113 / 106 40% 1 17.11.2026 -
Lucas Pedraza Defensores Unidos Ativo 108 / 107 40% 1 16.11.2026 -
Emiliano García Uruguay Montevideo Ativo 98 / 99 40% 2 14.11.2026 -
Ronny Maza Aragua Ativo 107 / 97 40% 3 14.11.2026 -
Sebastián Camacho Uruguay Montevideo Ativo 90 / 99 40% 2 12.11.2026 -
Luca Bastilla Nashville SC Ativo 86 / 113 40% 1 11.11.2026 -
Gianluca Pugliese Güemes Ativo 115 / 108 40% 1 09.11.2026 -
Nahuel Marzochi Colon Ativo 102 / 100 40% 3 06.11.2026 -
Luca Franco Arsenal Ativo 97 / 118 40% 1 06.11.2026 -
Salomon Ramirez Atletico Venezuela Ativo 97 / 106 40% 1 03.11.2026 -
Lisandro Cabrera Maipú Ativo 127 / 105 40% 1 31.10.2026 -
Ignacio Pereira Danubio Ativo 115 / 99 40% 1 25.10.2026 -
Marber Suárez Zulia Ativo 84 / 98 40% 1 24.10.2026 -
Sebastián Marfort Racing Ativo 109 / 100 40% 1 20.10.2026 -
Brian González Atenas Ativo 90 / 91 40% 1 19.10.2026 -
Santiago Herrera Estudiantes de Caracas Ativo 99 / 80 40% 2 16.10.2026 -
Germán Cervera Alvarado Ativo 90 / 94 40% 1 16.10.2026 -
Esteban Moreira O'Higgins Ativo 89 / 89 40% 1 13.10.2026 -
Agustín Juárez Minnesota United FC Ativo 95 / 97 40% 1 12.10.2026 -
Cristian Lima Uruguay Montevideo Ativo 90 / 98 40% 1 12.10.2026 -
Walter Domínguez Deportivo Maldonado Ativo 81 / 104 40% 2 11.10.2026 -
Juan Álvarez Uruguay Montevideo Ativo 101 / 90 40% 1 07.10.2026 -
Martín Pino Godoy Cruz Ativo 125 / 102 40% 1 07.10.2026 -
Mauro Martín Progreso Ativo 115 / 101 40% 1 06.10.2026 -
Renato Alexandrino Oriental Ativo 100 / 84 40% 1 04.10.2026 -
Sebastián Cocimano Nueva Chicago Ativo 123 / 128 40% 1 29.09.2026 -
Esteban Rodríguez Uruguay Montevideo Ativo 88 / 90 40% 1 27.09.2026 -
José Rivas Gamboa Trujillanos Ativo 100 / 99 40% 2 24.09.2026 -
Rodrigo Muníz Uruguay Montevideo Ativo 99 / 95 40% 1 23.09.2026 -
Agustín Bianciotti Metropolitanos Ativo 91 / 88 40% 1 19.09.2026 -
Nahuel Soria Oriental Ativo 94 / 97 40% 1 18.09.2026 -
Carlos Torres Deportivo Pasto Ativo 84 / 105 40% 1 14.09.2026 -
Franco Troyansky Audax Italiano Ativo 116 / 101 40% 2 13.09.2026 -
Jimmy Evans Universidad Catolica Ativo 100 / 106 40% 1 13.09.2026 -
Nahuel Sena Cerro Ativo 110 / 97 40% 1 10.09.2026 -
Bruno Scorza La Luz Ativo 85 / 108 40% 2 31.08.2026 -
Lucas Espinosa Colon Ativo 92 / 69 40% 1 31.08.2026 -
Juan David Ruiz Leones Ativo 81 / 77 40% 1 25.08.2026 -
Braian Vargas Cerro Ativo 100 / 89 40% 1 18.08.2026 -
Kevin Campillay Antofagasta Ativo 99 / 96 40% 1 17.08.2026 -
Nicolás Sosa La Luz Ativo 76 / 93 40% 1 16.08.2026 -
Mauricio Liñán Bogota Ativo 89 / 103 40% 1 15.08.2026 -
Diego Méndez Tacuarembo Ativo 79 / 91 40% 1 14.08.2026 -
Lucas González Nacional Ativo 114 / 111 40% 1 13.08.2026 -
Thomas González Cerro Largo Ativo 80 / 71 40% 1 13.08.2026 -
Junior Paredes Trujillanos Ativo 106 / 84 40% 1 08.08.2026 -
Franco Pérez Boston River Ativo 93 / 101 40% 1 01.08.2026 -